sensor_id;sensor_type;location;lat;lon;timestamp;P1;durP1;ratioP1;P2;durP2;ratioP2
27408;SDS011;20413;50.782;7.152;2022-12-11T00:02:11;58.10;;;27.35;;
27408;SDS011;20413;50.782;7.152;2022-12-11T00:04:36;57.78;;;28.02;;
27408;SDS011;20413;50.782;7.152;2022-12-11T00:07:02;62.22;;;28.95;;
27408;SDS011;20413;50.782;7.152;2022-12-11T00:09:28;70.30;;;29.98;;
27408;SDS011;20413;50.782;7.152;2022-12-11T00:11:53;69.97;;;31.30;;
27408;SDS011;20413;50.782;7.152;2022-12-11T00:14:20;64.88;;;29.25;;
27408;SDS011;20413;50.782;7.152;2022-12-11T00:16:46;65.72;;;29.38;;
27408;SDS011;20413;50.782;7.152;2022-12-11T00:19:13;48.10;;;22.65;;
27408;SDS011;20413;50.782;7.152;2022-12-11T00:21:39;63.47;;;30.20;;
27408;SDS011;20413;50.782;7.152;2022-12-11T00:24:04;64.95;;;28.83;;
27408;SDS011;20413;50.782;7.152;2022-12-11T00:26:30;65.75;;;29.90;;
27408;SDS011;20413;50.782;7.152;2022-12-11T00:28:56;65.80;;;30.98;;
27408;SDS011;20413;50.782;7.152;2022-12-11T00:31:22;65.03;;;30.52;;
27408;SDS011;20413;50.782;7.152;2022-12-11T00:33:48;65.40;;;30.15;;
27408;SDS011;20413;50.782;7.152;2022-12-11T00:36:18;66.57;;;30.73;;
27408;SDS011;20413;50.782;7.152;2022-12-11T00:38:48;66.72;;;30.13;;
27408;SDS011;20413;50.782;7.152;2022-12-11T00:41:15;66.53;;;29.73;;
27408;SDS011;20413;50.782;7.152;2022-12-11T00:43:41;62.55;;;29.80;;
27408;SDS011;20413;50.782;7.152;2022-12-11T00:46:07;65.45;;;29.63;;
27408;SDS011;20413;50.782;7.152;2022-12-11T00:48:33;62.22;;;29.45;;
27408;SDS011;20413;50.782;7.152;2022-12-11T00:50:58;63.47;;;29.77;;
27408;SDS011;20413;50.782;7.152;2022-12-11T00:53:24;63.03;;;29.27;;
27408;SDS011;20413;50.782;7.152;2022-12-11T00:55:50;63.42;;;29.25;;
27408;SDS011;20413;50.782;7.152;2022-12-11T00:58:15;66.03;;;30.05;;
27408;SDS011;20413;50.782;7.152;2022-12-11T01:00:41;60.65;;;29.42;;
27408;SDS011;20413;50.782;7.152;2022-12-11T01:03:07;63.08;;;30.58;;
27408;SDS011;20413;50.782;7.152;2022-12-11T01:05:34;64.13;;;30.02;;
27408;SDS011;20413;50.782;7.152;2022-12-11T01:08:00;66.97;;;30.27;;
27408;SDS011;20413;50.782;7.152;2022-12-11T01:10:26;63.33;;;29.20;;
27408;SDS011;20413;50.782;7.152;2022-12-11T01:12:53;64.78;;;29.45;;
27408;SDS011;20413;50.782;7.152;2022-12-11T01:15:21;71.75;;;30.75;;
27408;SDS011;20413;50.782;7.152;2022-12-11T01:17:51;68.75;;;30.40;;
27408;SDS011;20413;50.782;7.152;2022-12-11T01:20:17;73.80;;;31.55;;
27408;SDS011;20413;50.782;7.152;2022-12-11T01:22:44;74.20;;;29.42;;
27408;SDS011;20413;50.782;7.152;2022-12-11T01:25:09;75.47;;;29.50;;
27408;SDS011;20413;50.782;7.152;2022-12-11T01:27:35;70.97;;;29.45;;
27408;SDS011;20413;50.782;7.152;2022-12-11T01:30:02;69.22;;;29.10;;
27408;SDS011;20413;50.782;7.152;2022-12-11T01:32:30;74.15;;;28.73;;
27408;SDS011;20413;50.782;7.152;2022-12-11T01:34:56;70.25;;;28.13;;
27408;SDS011;20413;50.782;7.152;2022-12-11T01:37:21;75.22;;;29.75;;
27408;SDS011;20413;50.782;7.152;2022-12-11T01:39:47;78.85;;;29.73;;
27408;SDS011;20413;50.782;7.152;2022-12-11T01:42:17;66.93;;;26.48;;
27408;SDS011;20413;50.782;7.152;2022-12-11T01:47:09;66.80;;;26.30;;
27408;SDS011;20413;50.782;7.152;2022-12-11T01:49:35;67.65;;;26.35;;
27408;SDS011;20413;50.782;7.152;2022-12-11T01:52:10;70.80;;;24.10;;
27408;SDS011;20413;50.782;7.152;2022-12-11T01:54:43;70.03;;;24.17;;
27408;SDS011;20413;50.782;7.152;2022-12-11T01:57:09;67.18;;;24.17;;
27408;SDS011;20413;50.782;7.152;2022-12-11T01:59:37;71.53;;;22.90;;
27408;SDS011;20413;50.782;7.152;2022-12-11T02:02:08;73.93;;;25.38;;
27408;SDS011;20413;50.782;7.152;2022-12-11T02:04:41;74.32;;;24.58;;
27408;SDS011;20413;50.782;7.152;2022-12-11T02:07:08;52.42;;;18.60;;
27408;SDS011;20413;50.782;7.152;2022-12-11T02:09:34;69.43;;;23.50;;
27408;SDS011;20413;50.782;7.152;2022-12-11T02:14:39;77.45;;;24.35;;
27408;SDS011;20413;50.782;7.152;2022-12-11T02:17:15;73.05;;;24.55;;
27408;SDS011;20413;50.782;7.152;2022-12-11T02:19:57;78.60;;;25.05;;
27408;SDS011;20413;50.782;7.152;2022-12-11T02:22:37;74.25;;;24.90;;
27408;SDS011;20413;50.782;7.152;2022-12-11T02:25:50;66.55;;;23.83;;
27408;SDS011;20413;50.782;7.152;2022-12-11T02:31:16;73.30;;;25.52;;
27408;SDS011;20413;50.782;7.152;2022-12-11T02:33:46;72.28;;;25.92;;
27408;SDS011;20413;50.782;7.152;2022-12-11T02:36:17;72.45;;;26.15;;
27408;SDS011;20413;50.782;7.152;2022-12-11T02:38:48;67.38;;;24.75;;
27408;SDS011;20413;50.782;7.152;2022-12-11T02:41:17;72.65;;;24.77;;
27408;SDS011;20413;50.782;7.152;2022-12-11T02:43:45;75.68;;;26.27;;
27408;SDS011;20413;50.782;7.152;2022-12-11T02:46:12;54.53;;;19.20;;
27408;SDS011;20413;50.782;7.152;2022-12-11T02:48:39;71.63;;;25.92;;
27408;SDS011;20413;50.782;7.152;2022-12-11T02:51:06;71.70;;;25.35;;
27408;SDS011;20413;50.782;7.152;2022-12-11T02:53:34;52.05;;;18.13;;
27408;SDS011;20413;50.782;7.152;2022-12-11T02:56:10;72.53;;;24.90;;
27408;SDS011;20413;50.782;7.152;2022-12-11T02:58:45;70.43;;;25.17;;
27408;SDS011;20413;50.782;7.152;2022-12-11T03:01:14;72.43;;;23.80;;
27408;SDS011;20413;50.782;7.152;2022-12-11T03:03:40;71.93;;;26.08;;
27408;SDS011;20413;50.782;7.152;2022-12-11T03:06:07;77.47;;;25.15;;
27408;SDS011;20413;50.782;7.152;2022-12-11T03:08:35;70.97;;;25.02;;
27408;SDS011;20413;50.782;7.152;2022-12-11T03:11:01;69.53;;;25.50;;
27408;SDS011;20413;50.782;7.152;2022-12-11T03:13:26;68.38;;;24.23;;
27408;SDS011;20413;50.782;7.152;2022-12-11T03:15:56;68.22;;;23.10;;
27408;SDS011;20413;50.782;7.152;2022-12-11T03:24:14;65.15;;;23.45;;
27408;SDS011;20413;50.782;7.152;2022-12-11T03:26:59;65.72;;;23.75;;
27408;SDS011;20413;50.782;7.152;2022-12-11T03:29:30;60.08;;;22.75;;
27408;SDS011;20413;50.782;7.152;2022-12-11T03:34:38;66.55;;;23.67;;
27408;SDS011;20413;50.782;7.152;2022-12-11T03:37:08;63.65;;;23.73;;
27408;SDS011;20413;50.782;7.152;2022-12-11T03:39:36;62.15;;;23.45;;
27408;SDS011;20413;50.782;7.152;2022-12-11T03:42:05;67.18;;;23.33;;
27408;SDS011;20413;50.782;7.152;2022-12-11T03:44:33;63.85;;;23.60;;
27408;SDS011;20413;50.782;7.152;2022-12-11T03:47:00;58.08;;;21.27;;
27408;SDS011;20413;50.782;7.152;2022-12-11T03:49:30;62.25;;;24.15;;
27408;SDS011;20413;50.782;7.152;2022-12-11T03:52:00;63.63;;;24.27;;
27408;SDS011;20413;50.782;7.152;2022-12-11T03:56:55;59.58;;;21.35;;
27408;SDS011;20413;50.782;7.152;2022-12-11T03:59:22;63.20;;;21.38;;
27408;SDS011;20413;50.782;7.152;2022-12-11T04:01:48;61.38;;;22.63;;
27408;SDS011;20413;50.782;7.152;2022-12-11T04:04:14;63.92;;;23.45;;
27408;SDS011;20413;50.782;7.152;2022-12-11T04:06:40;61.97;;;22.35;;
27408;SDS011;20413;50.782;7.152;2022-12-11T04:09:05;58.60;;;21.88;;
27408;SDS011;20413;50.782;7.152;2022-12-11T04:11:31;60.75;;;21.65;;
27408;SDS011;20413;50.782;7.152;2022-12-11T04:14:03;63.50;;;22.75;;
27408;SDS011;20413;50.782;7.152;2022-12-11T04:16:50;60.40;;;22.65;;
27408;SDS011;20413;50.782;7.152;2022-12-11T04:19:15;62.67;;;23.27;;
27408;SDS011;20413;50.782;7.152;2022-12-11T04:22:00;54.60;;;22.25;;
27408;SDS011;20413;50.782;7.152;2022-12-11T04:24:46;63.05;;;22.02;;
27408;SDS011;20413;50.782;7.152;2022-12-11T04:27:15;58.47;;;21.65;;
27408;SDS011;20413;50.782;7.152;2022-12-11T04:30:02;58.15;;;20.80;;
27408;SDS011;20413;50.782;7.152;2022-12-11T04:32:29;60.08;;;23.33;;
27408;SDS011;20413;50.782;7.152;2022-12-11T04:34:55;60.20;;;21.52;;
27408;SDS011;20413;50.782;7.152;2022-12-11T04:37:20;57.08;;;21.67;;
27408;SDS011;20413;50.782;7.152;2022-12-11T04:39:46;61.15;;;22.35;;
27408;SDS011;20413;50.782;7.152;2022-12-11T04:42:12;58.08;;;22.17;;
27408;SDS011;20413;50.782;7.152;2022-12-11T04:44:37;59.35;;;22.42;;
27408;SDS011;20413;50.782;7.152;2022-12-11T04:47:03;57.83;;;21.77;;
27408;SDS011;20413;50.782;7.152;2022-12-11T04:49:28;55.53;;;20.77;;
27408;SDS011;20413;50.782;7.152;2022-12-11T04:51:54;54.40;;;21.77;;
27408;SDS011;20413;50.782;7.152;2022-12-11T04:54:19;53.30;;;20.35;;
27408;SDS011;20413;50.782;7.152;2022-12-11T04:56:45;58.88;;;21.98;;
27408;SDS011;20413;50.782;7.152;2022-12-11T04:59:11;58.20;;;20.63;;
27408;SDS011;20413;50.782;7.152;2022-12-11T05:01:36;53.50;;;20.48;;
27408;SDS011;20413;50.782;7.152;2022-12-11T05:04:02;58.60;;;20.80;;
27408;SDS011;20413;50.782;7.152;2022-12-11T05:06:27;63.15;;;23.58;;
27408;SDS011;20413;50.782;7.152;2022-12-11T05:08:53;59.33;;;21.00;;
27408;SDS011;20413;50.782;7.152;2022-12-11T05:11:18;60.47;;;22.15;;
27408;SDS011;20413;50.782;7.152;2022-12-11T05:13:44;65.65;;;22.58;;
27408;SDS011;20413;50.782;7.152;2022-12-11T05:16:13;63.00;;;22.85;;
27408;SDS011;20413;50.782;7.152;2022-12-11T05:18:39;56.08;;;21.92;;
27408;SDS011;20413;50.782;7.152;2022-12-11T05:21:06;64.65;;;21.27;;
27408;SDS011;20413;50.782;7.152;2022-12-11T05:23:33;55.72;;;21.88;;
27408;SDS011;20413;50.782;7.152;2022-12-11T05:26:33;55.17;;;21.80;;
27408;SDS011;20413;50.782;7.152;2022-12-11T05:28:52;53.03;;;18.92;;
27408;SDS011;20413;50.782;7.152;2022-12-11T05:31:19;56.75;;;20.25;;
27408;SDS011;20413;50.782;7.152;2022-12-11T05:33:48;55.22;;;20.42;;
27408;SDS011;20413;50.782;7.152;2022-12-11T05:36:18;57.72;;;20.30;;
27408;SDS011;20413;50.782;7.152;2022-12-11T05:38:49;55.40;;;20.52;;
27408;SDS011;20413;50.782;7.152;2022-12-11T05:41:17;57.00;;;21.33;;
27408;SDS011;20413;50.782;7.152;2022-12-11T05:43:44;62.35;;;22.55;;
27408;SDS011;20413;50.782;7.152;2022-12-11T05:46:14;66.32;;;23.58;;
27408;SDS011;20413;50.782;7.152;2022-12-11T05:48:41;71.90;;;24.70;;
27408;SDS011;20413;50.782;7.152;2022-12-11T05:51:08;70.23;;;23.23;;
27408;SDS011;20413;50.782;7.152;2022-12-11T05:53:35;71.32;;;25.35;;
27408;SDS011;20413;50.782;7.152;2022-12-11T05:56:43;63.30;;;22.90;;
27408;SDS011;20413;50.782;7.152;2022-12-11T05:58:52;71.93;;;25.35;;
27408;SDS011;20413;50.782;7.152;2022-12-11T06:01:19;71.63;;;24.42;;
27408;SDS011;20413;50.782;7.152;2022-12-11T06:03:45;67.57;;;24.05;;
27408;SDS011;20413;50.782;7.152;2022-12-11T06:06:11;69.82;;;24.60;;
27408;SDS011;20413;50.782;7.152;2022-12-11T06:08:36;63.80;;;22.58;;
27408;SDS011;20413;50.782;7.152;2022-12-11T06:11:03;59.53;;;22.52;;
27408;SDS011;20413;50.782;7.152;2022-12-11T06:13:29;68.90;;;25.00;;
27408;SDS011;20413;50.782;7.152;2022-12-11T06:15:58;75.07;;;26.63;;
27408;SDS011;20413;50.782;7.152;2022-12-11T06:18:25;75.15;;;26.77;;
27408;SDS011;20413;50.782;7.152;2022-12-11T06:20:50;85.43;;;28.60;;
27408;SDS011;20413;50.782;7.152;2022-12-11T06:23:16;90.18;;;31.77;;
27408;SDS011;20413;50.782;7.152;2022-12-11T06:25:42;96.07;;;31.65;;
27408;SDS011;20413;50.782;7.152;2022-12-11T06:28:07;88.65;;;31.60;;
27408;SDS011;20413;50.782;7.152;2022-12-11T06:30:33;87.93;;;31.25;;
27408;SDS011;20413;50.782;7.152;2022-12-11T06:32:58;91.82;;;33.45;;
27408;SDS011;20413;50.782;7.152;2022-12-11T06:35:24;93.93;;;33.55;;
27408;SDS011;20413;50.782;7.152;2022-12-11T06:37:50;96.50;;;34.15;;
27408;SDS011;20413;50.782;7.152;2022-12-11T06:40:15;94.10;;;33.80;;
27408;SDS011;20413;50.782;7.152;2022-12-11T06:42:41;87.72;;;32.15;;
27408;SDS011;20413;50.782;7.152;2022-12-11T06:45:06;101.00;;;33.83;;
27408;SDS011;20413;50.782;7.152;2022-12-11T06:47:32;94.45;;;33.75;;
27408;SDS011;20413;50.782;7.152;2022-12-11T06:49:58;90.85;;;32.38;;
27408;SDS011;20413;50.782;7.152;2022-12-11T06:52:25;98.20;;;34.03;;
27408;SDS011;20413;50.782;7.152;2022-12-11T06:54:53;100.32;;;34.67;;
27408;SDS011;20413;50.782;7.152;2022-12-11T06:57:20;94.25;;;33.65;;
27408;SDS011;20413;50.782;7.152;2022-12-11T06:59:45;98.18;;;34.25;;
27408;SDS011;20413;50.782;7.152;2022-12-11T07:02:15;92.60;;;32.47;;
27408;SDS011;20413;50.782;7.152;2022-12-11T07:04:42;101.72;;;34.25;;
27408;SDS011;20413;50.782;7.152;2022-12-11T07:07:07;95.70;;;32.78;;
27408;SDS011;20413;50.782;7.152;2022-12-11T07:09:33;90.75;;;31.73;;
27408;SDS011;20413;50.782;7.152;2022-12-11T07:11:59;98.13;;;32.55;;
27408;SDS011;20413;50.782;7.152;2022-12-11T07:14:25;93.32;;;32.70;;
27408;SDS011;20413;50.782;7.152;2022-12-11T07:16:50;99.72;;;34.67;;
27408;SDS011;20413;50.782;7.152;2022-12-11T07:19:16;90.13;;;32.70;;
27408;SDS011;20413;50.782;7.152;2022-12-11T07:21:42;95.30;;;34.00;;
27408;SDS011;20413;50.782;7.152;2022-12-11T07:24:07;104.65;;;35.38;;
27408;SDS011;20413;50.782;7.152;2022-12-11T07:26:33;90.15;;;32.75;;
27408;SDS011;20413;50.782;7.152;2022-12-11T07:28:59;88.53;;;33.55;;
27408;SDS011;20413;50.782;7.152;2022-12-11T07:31:25;90.35;;;33.75;;
27408;SDS011;20413;50.782;7.152;2022-12-11T07:34:03;87.78;;;33.47;;
27408;SDS011;20413;50.782;7.152;2022-12-11T07:36:30;87.15;;;34.63;;
27408;SDS011;20413;50.782;7.152;2022-12-11T07:38:57;91.95;;;34.67;;
27408;SDS011;20413;50.782;7.152;2022-12-11T07:41:23;83.57;;;33.50;;
27408;SDS011;20413;50.782;7.152;2022-12-11T07:43:51;93.43;;;33.08;;
27408;SDS011;20413;50.782;7.152;2022-12-11T07:46:18;91.03;;;34.28;;
27408;SDS011;20413;50.782;7.152;2022-12-11T07:48:46;93.68;;;34.08;;
27408;SDS011;20413;50.782;7.152;2022-12-11T07:51:13;79.20;;;32.88;;
27408;SDS011;20413;50.782;7.152;2022-12-11T07:53:40;83.93;;;32.55;;
27408;SDS011;20413;50.782;7.152;2022-12-11T07:56:15;86.50;;;32.85;;
27408;SDS011;20413;50.782;7.152;2022-12-11T07:58:42;88.27;;;32.33;;
27408;SDS011;20413;50.782;7.152;2022-12-11T08:01:18;83.18;;;34.03;;
27408;SDS011;20413;50.782;7.152;2022-12-11T08:03:45;82.53;;;31.95;;
27408;SDS011;20413;50.782;7.152;2022-12-11T08:06:11;80.30;;;30.88;;
27408;SDS011;20413;50.782;7.152;2022-12-11T08:08:37;89.50;;;32.75;;
27408;SDS011;20413;50.782;7.152;2022-12-11T08:11:04;83.38;;;32.60;;
27408;SDS011;20413;50.782;7.152;2022-12-11T08:13:31;90.40;;;32.65;;
27408;SDS011;20413;50.782;7.152;2022-12-11T08:15:57;86.53;;;31.98;;
27408;SDS011;20413;50.782;7.152;2022-12-11T08:18:22;89.75;;;34.75;;
27408;SDS011;20413;50.782;7.152;2022-12-11T08:20:48;79.63;;;32.17;;
27408;SDS011;20413;50.782;7.152;2022-12-11T08:23:14;85.25;;;32.70;;
27408;SDS011;20413;50.782;7.152;2022-12-11T08:25:39;84.90;;;32.40;;
27408;SDS011;20413;50.782;7.152;2022-12-11T08:28:05;89.63;;;33.72;;
27408;SDS011;20413;50.782;7.152;2022-12-11T08:30:31;83.85;;;32.22;;
27408;SDS011;20413;50.782;7.152;2022-12-11T08:32:57;86.90;;;33.05;;
27408;SDS011;20413;50.782;7.152;2022-12-11T08:35:23;83.45;;;31.75;;
27408;SDS011;20413;50.782;7.152;2022-12-11T08:37:50;82.70;;;32.20;;
27408;SDS011;20413;50.782;7.152;2022-12-11T08:40:15;84.35;;;33.13;;
27408;SDS011;20413;50.782;7.152;2022-12-11T08:42:41;87.72;;;33.25;;
27408;SDS011;20413;50.782;7.152;2022-12-11T08:45:07;92.05;;;34.75;;
27408;SDS011;20413;50.782;7.152;2022-12-11T08:47:33;91.78;;;34.38;;
27408;SDS011;20413;50.782;7.152;2022-12-11T08:49:58;82.97;;;32.72;;
27408;SDS011;20413;50.782;7.152;2022-12-11T08:52:24;86.68;;;33.60;;
27408;SDS011;20413;50.782;7.152;2022-12-11T08:54:49;89.45;;;34.75;;
27408;SDS011;20413;50.782;7.152;2022-12-11T08:57:15;85.25;;;33.30;;
27408;SDS011;20413;50.782;7.152;2022-12-11T08:59:41;88.72;;;32.83;;
27408;SDS011;20413;50.782;7.152;2022-12-11T09:02:09;80.65;;;30.20;;
27408;SDS011;20413;50.782;7.152;2022-12-11T09:04:36;73.78;;;29.42;;
27408;SDS011;20413;50.782;7.152;2022-12-11T09:07:01;77.22;;;30.58;;
27408;SDS011;20413;50.782;7.152;2022-12-11T09:09:27;79.53;;;30.80;;
27408;SDS011;20413;50.782;7.152;2022-12-11T09:11:53;75.03;;;30.17;;
27408;SDS011;20413;50.782;7.152;2022-12-11T09:14:19;81.15;;;31.35;;
27408;SDS011;20413;50.782;7.152;2022-12-11T09:16:45;82.88;;;31.15;;
27408;SDS011;20413;50.782;7.152;2022-12-11T09:19:12;71.38;;;27.60;;
27408;SDS011;20413;50.782;7.152;2022-12-11T09:21:38;74.45;;;30.67;;
27408;SDS011;20413;50.782;7.152;2022-12-11T09:24:04;79.28;;;29.38;;
27408;SDS011;20413;50.782;7.152;2022-12-11T09:26:30;72.68;;;29.52;;
27408;SDS011;20413;50.782;7.152;2022-12-11T09:28:56;74.22;;;29.50;;
27408;SDS011;20413;50.782;7.152;2022-12-11T09:31:26;64.50;;;25.23;;
27408;SDS011;20413;50.782;7.152;2022-12-11T09:33:55;78.38;;;28.55;;
27408;SDS011;20413;50.782;7.152;2022-12-11T09:36:22;75.93;;;28.05;;
27408;SDS011;20413;50.782;7.152;2022-12-11T09:38:48;72.53;;;29.35;;
27408;SDS011;20413;50.782;7.152;2022-12-11T09:46:29;75.00;;;29.95;;
27408;SDS011;20413;50.782;7.152;2022-12-11T09:48:56;81.63;;;28.35;;
27408;SDS011;20413;50.782;7.152;2022-12-11T09:53:47;71.68;;;28.77;;
27408;SDS011;20413;50.782;7.152;2022-12-11T09:56:25;79.55;;;29.23;;
27408;SDS011;20413;50.782;7.152;2022-12-11T10:01:32;74.95;;;29.60;;
27408;SDS011;20413;50.782;7.152;2022-12-11T10:04:19;47.13;;;19.10;;
27408;SDS011;20413;50.782;7.152;2022-12-11T10:06:56;67.75;;;26.30;;
27408;SDS011;20413;50.782;7.152;2022-12-11T10:15:12;64.25;;;25.48;;
27408;SDS011;20413;50.782;7.152;2022-12-11T10:17:55;65.18;;;25.40;;
27408;SDS011;20413;50.782;7.152;2022-12-11T10:20:23;69.43;;;25.27;;
27408;SDS011;20413;50.782;7.152;2022-12-11T10:22:55;68.85;;;27.17;;
27408;SDS011;20413;50.782;7.152;2022-12-11T10:25:26;68.00;;;26.85;;
27408;SDS011;20413;50.782;7.152;2022-12-11T10:27:55;71.82;;;25.60;;
27408;SDS011;20413;50.782;7.152;2022-12-11T10:30:24;68.40;;;24.63;;
27408;SDS011;20413;50.782;7.152;2022-12-11T10:35:38;62.03;;;25.27;;
27408;SDS011;20413;50.782;7.152;2022-12-11T10:40:37;65.25;;;25.45;;
27408;SDS011;20413;50.782;7.152;2022-12-11T10:43:07;64.07;;;25.00;;
27408;SDS011;20413;50.782;7.152;2022-12-11T10:45:32;63.40;;;25.38;;
27408;SDS011;20413;50.782;7.152;2022-12-11T10:48:05;57.25;;;22.80;;
27408;SDS011;20413;50.782;7.152;2022-12-11T10:50:34;62.83;;;25.52;;
27408;SDS011;20413;50.782;7.152;2022-12-11T10:53:00;58.67;;;23.83;;
27408;SDS011;20413;50.782;7.152;2022-12-11T10:55:27;66.45;;;23.65;;
27408;SDS011;20413;50.782;7.152;2022-12-11T10:58:11;64.72;;;23.48;;
27408;SDS011;20413;50.782;7.152;2022-12-11T11:00:43;67.28;;;24.33;;
27408;SDS011;20413;50.782;7.152;2022-12-11T11:03:19;58.30;;;23.17;;
27408;SDS011;20413;50.782;7.152;2022-12-11T11:06:00;54.65;;;22.95;;
27408;SDS011;20413;50.782;7.152;2022-12-11T11:08:43;50.72;;;20.92;;
27408;SDS011;20413;50.782;7.152;2022-12-11T11:11:53;56.65;;;22.77;;
27408;SDS011;20413;50.782;7.152;2022-12-11T11:16:42;56.97;;;22.23;;
27408;SDS011;20413;50.782;7.152;2022-12-11T11:19:20;55.10;;;22.30;;
27408;SDS011;20413;50.782;7.152;2022-12-11T11:22:04;54.22;;;22.75;;
27408;SDS011;20413;50.782;7.152;2022-12-11T11:25:00;55.65;;;23.08;;
27408;SDS011;20413;50.782;7.152;2022-12-11T11:29:58;60.72;;;24.83;;
27408;SDS011;20413;50.782;7.152;2022-12-11T11:32:30;62.80;;;28.38;;
27408;SDS011;20413;50.782;7.152;2022-12-11T11:37:35;60.22;;;26.67;;
27408;SDS011;20413;50.782;7.152;2022-12-11T11:40:46;58.50;;;24.35;;
27408;SDS011;20413;50.782;7.152;2022-12-11T11:42:55;53.80;;;22.50;;
27408;SDS011;20413;50.782;7.152;2022-12-11T11:48:11;37.87;;;16.13;;
27408;SDS011;20413;50.782;7.152;2022-12-11T11:50:37;60.90;;;24.13;;
27408;SDS011;20413;50.782;7.152;2022-12-11T11:53:13;52.10;;;22.35;;
27408;SDS011;20413;50.782;7.152;2022-12-11T11:55:48;46.03;;;21.55;;
27408;SDS011;20413;50.782;7.152;2022-12-11T11:58:18;50.38;;;22.45;;
27408;SDS011;20413;50.782;7.152;2022-12-11T12:00:48;52.47;;;22.55;;
27408;SDS011;20413;50.782;7.152;2022-12-11T12:03:18;58.15;;;23.25;;
27408;SDS011;20413;50.782;7.152;2022-12-11T12:05:56;48.17;;;22.30;;
27408;SDS011;20413;50.782;7.152;2022-12-11T12:08:36;53.78;;;22.38;;
27408;SDS011;20413;50.782;7.152;2022-12-11T12:22:35;47.35;;;19.63;;
27408;SDS011;20413;50.782;7.152;2022-12-11T12:27:45;44.63;;;19.77;;
27408;SDS011;20413;50.782;7.152;2022-12-11T12:30:13;39.60;;;18.17;;
27408;SDS011;20413;50.782;7.152;2022-12-11T12:38:09;46.17;;;19.33;;
27408;SDS011;20413;50.782;7.152;2022-12-11T12:46:31;43.15;;;18.48;;
27408;SDS011;20413;50.782;7.152;2022-12-11T12:49:09;39.67;;;17.00;;
27408;SDS011;20413;50.782;7.152;2022-12-11T12:51:39;41.53;;;18.30;;
27408;SDS011;20413;50.782;7.152;2022-12-11T12:54:08;37.47;;;17.65;;
27408;SDS011;20413;50.782;7.152;2022-12-11T12:56:39;42.15;;;18.55;;
27408;SDS011;20413;50.782;7.152;2022-12-11T12:59:20;46.05;;;20.17;;
27408;SDS011;20413;50.782;7.152;2022-12-11T13:01:52;43.55;;;20.65;;
27408;SDS011;20413;50.782;7.152;2022-12-11T13:04:28;40.92;;;18.55;;
27408;SDS011;20413;50.782;7.152;2022-12-11T13:07:21;46.03;;;20.52;;
27408;SDS011;20413;50.782;7.152;2022-12-11T13:10:04;40.78;;;19.48;;
27408;SDS011;20413;50.782;7.152;2022-12-11T13:12:48;40.85;;;18.55;;
27408;SDS011;20413;50.782;7.152;2022-12-11T13:18:01;42.58;;;18.92;;
27408;SDS011;20413;50.782;7.152;2022-12-11T13:20:32;45.40;;;20.45;;
27408;SDS011;20413;50.782;7.152;2022-12-11T13:25:30;55.10;;;22.77;;
27408;SDS011;20413;50.782;7.152;2022-12-11T13:28:19;49.40;;;20.35;;
27408;SDS011;20413;50.782;7.152;2022-12-11T13:31:22;48.83;;;19.98;;
27408;SDS011;20413;50.782;7.152;2022-12-11T13:33:56;50.22;;;22.65;;
27408;SDS011;20413;50.782;7.152;2022-12-11T13:36:50;46.20;;;20.02;;
27408;SDS011;20413;50.782;7.152;2022-12-11T13:39:25;43.63;;;20.13;;
27408;SDS011;20413;50.782;7.152;2022-12-11T13:41:57;49.28;;;19.13;;
27408;SDS011;20413;50.782;7.152;2022-12-11T13:44:36;34.88;;;16.35;;
27408;SDS011;20413;50.782;7.152;2022-12-11T13:47:05;41.33;;;17.23;;
27408;SDS011;20413;50.782;7.152;2022-12-11T13:49:37;36.38;;;17.17;;
27408;SDS011;20413;50.782;7.152;2022-12-11T13:52:14;35.97;;;16.65;;
27408;SDS011;20413;50.782;7.152;2022-12-11T13:54:46;41.05;;;17.45;;
27408;SDS011;20413;50.782;7.152;2022-12-11T13:57:20;42.05;;;17.05;;
27408;SDS011;20413;50.782;7.152;2022-12-11T13:59:56;41.03;;;16.58;;
27408;SDS011;20413;50.782;7.152;2022-12-11T14:05:03;37.08;;;16.48;;
27408;SDS011;20413;50.782;7.152;2022-12-11T14:07:35;38.90;;;17.58;;
27408;SDS011;20413;50.782;7.152;2022-12-11T14:10:15;40.75;;;17.63;;
27408;SDS011;20413;50.782;7.152;2022-12-11T14:15:23;38.00;;;17.08;;
27408;SDS011;20413;50.782;7.152;2022-12-11T14:17:50;42.70;;;17.93;;
27408;SDS011;20413;50.782;7.152;2022-12-11T14:20:19;44.05;;;17.08;;
27408;SDS011;20413;50.782;7.152;2022-12-11T14:25:55;38.00;;;16.98;;
27408;SDS011;20413;50.782;7.152;2022-12-11T14:28:21;40.55;;;16.20;;
27408;SDS011;20413;50.782;7.152;2022-12-11T14:30:51;45.08;;;18.13;;
27408;SDS011;20413;50.782;7.152;2022-12-11T14:35:46;47.03;;;19.67;;
27408;SDS011;20413;50.782;7.152;2022-12-11T14:38:33;44.93;;;19.37;;
27408;SDS011;20413;50.782;7.152;2022-12-11T14:41:11;46.15;;;17.60;;
27408;SDS011;20413;50.782;7.152;2022-12-11T14:43:50;44.50;;;18.50;;
27408;SDS011;20413;50.782;7.152;2022-12-11T14:46:22;39.03;;;17.70;;
27408;SDS011;20413;50.782;7.152;2022-12-11T14:49:23;47.38;;;18.10;;
27408;SDS011;20413;50.782;7.152;2022-12-11T14:51:50;45.20;;;18.42;;
27408;SDS011;20413;50.782;7.152;2022-12-11T14:54:53;43.60;;;18.65;;
27408;SDS011;20413;50.782;7.152;2022-12-11T14:57:19;39.17;;;17.42;;
27408;SDS011;20413;50.782;7.152;2022-12-11T14:59:47;41.17;;;18.33;;
27408;SDS011;20413;50.782;7.152;2022-12-11T15:05:27;38.08;;;15.70;;
27408;SDS011;20413;50.782;7.152;2022-12-11T15:10:38;43.00;;;17.55;;
27408;SDS011;20413;50.782;7.152;2022-12-11T15:13:07;39.03;;;17.20;;
27408;SDS011;20413;50.782;7.152;2022-12-11T15:15:52;29.67;;;13.85;;
27408;SDS011;20413;50.782;7.152;2022-12-11T15:18:23;36.78;;;16.85;;
27408;SDS011;20413;50.782;7.152;2022-12-11T15:20:50;34.30;;;15.02;;
27408;SDS011;20413;50.782;7.152;2022-12-11T15:23:17;35.88;;;15.93;;
27408;SDS011;20413;50.782;7.152;2022-12-11T15:25:48;33.95;;;16.10;;
27408;SDS011;20413;50.782;7.152;2022-12-11T15:28:29;37.92;;;16.83;;
27408;SDS011;20413;50.782;7.152;2022-12-11T15:31:02;36.70;;;16.58;;
27408;SDS011;20413;50.782;7.152;2022-12-11T15:33:29;35.67;;;16.25;;
27408;SDS011;20413;50.782;7.152;2022-12-11T15:35:56;36.42;;;16.00;;
27408;SDS011;20413;50.782;7.152;2022-12-11T15:38:32;21.07;;;10.50;;
27408;SDS011;20413;50.782;7.152;2022-12-11T15:41:00;37.58;;;16.08;;
27408;SDS011;20413;50.782;7.152;2022-12-11T15:43:27;28.60;;;14.38;;
27408;SDS011;20413;50.782;7.152;2022-12-11T15:45:55;32.63;;;14.73;;
27408;SDS011;20413;50.782;7.152;2022-12-11T15:48:21;31.55;;;14.48;;
27408;SDS011;20413;50.782;7.152;2022-12-11T15:50:47;28.77;;;14.35;;
27408;SDS011;20413;50.782;7.152;2022-12-11T15:53:12;30.13;;;14.57;;
27408;SDS011;20413;50.782;7.152;2022-12-11T15:55:38;30.38;;;14.90;;
27408;SDS011;20413;50.782;7.152;2022-12-11T15:58:05;28.58;;;13.82;;
27408;SDS011;20413;50.782;7.152;2022-12-11T16:00:33;31.42;;;14.50;;
27408;SDS011;20413;50.782;7.152;2022-12-11T16:02:59;28.58;;;14.15;;
27408;SDS011;20413;50.782;7.152;2022-12-11T16:05:24;30.65;;;14.45;;
27408;SDS011;20413;50.782;7.152;2022-12-11T16:07:51;27.10;;;13.73;;
27408;SDS011;20413;50.782;7.152;2022-12-11T16:10:18;33.28;;;15.15;;
27408;SDS011;20413;50.782;7.152;2022-12-11T16:12:45;30.63;;;14.88;;
27408;SDS011;20413;50.782;7.152;2022-12-11T16:15:11;27.60;;;14.32;;